Niverville, New York
Current Conditions -  °F | °C
As of 3:14 AM on Monday 24 Nov 2014 (Local Time) from KPSF Reporting Station
Light Rain Light Rain  
Wind Chill: 43°   Ceiling: 1800
Heat Index: 48°   Visibility: 6mi
Dew Point: 45°   Wind: 10mph
Humidity: 89%   Direction: 150°SSE
Pressure: 29.86"   Gusts: 22mph
Location:  42.45°N, 73.65°W
Report Text: KPSF 240814Z AUTO 15009G19KT 6SM -RA BR SCT014 BKN018 OVC032 09/07 A2986 RMK AO2 P0003 T00890072
Loading
Personal Weather Stations






























Interactive Weather Map New forecast layout! Learn more

10-Day Weather Forecast

Advertisements
Track Severe Weather on mobile